Time;durP1;ratioP1;P1;durP2;ratioP2;P2;SDS_P1;SDS_P2;PMS_P1;PMS_P2;Temp;Humidity;BMP_temperature;BMP_pressure;BME280_temperature;BME280_humidity;BME280_pressure;Samples;Min_cycle;Max_cycle;Signal;HPM_P1;HPM_P2
2022/09/22 00:02:58;;;;;;;2.20;2.00;;;9.40;96.20;;;;;;6226088;28;20838;-70
2022/09/22 00:06:06;;;;;;;1.33;1.23;;;9.30;96.20;;;;;;6226981;28;20886;-69
2022/09/22 00:09:12;;;;;;;2.83;1.50;;;9.40;96.20;;;;;;6227643;28;20452;-70
2022/09/22 00:12:15;;;;;;;1.77;1.67;;;9.30;96.30;;;;;;6226334;28;20467;-71
2022/09/22 00:15:18;;;;;;;1.57;1.47;;;9.30;96.50;;;;;;6227002;28;20436;-70
2022/09/22 00:18:23;;;;;;;1.80;1.70;;;9.30;96.50;;;;;;6227187;28;20440;-71
2022/09/22 00:21:29;;;;;;;1.50;1.40;;;9.20;96.60;;;;;;6226688;28;20842;-71
2022/09/22 00:24:33;;;;;;;2.27;1.80;;;9.20;96.70;;;;;;6226587;28;20958;-70
2022/09/22 00:27:36;;;;;;;1.80;1.67;;;9.20;96.60;;;;;;6225661;28;20854;-70
2022/09/22 00:30:41;;;;;;;1.37;1.27;;;9.10;96.60;;;;;;6223780;28;21007;-69
2022/09/22 00:33:46;;;;;;;1.67;1.57;;;9.10;96.70;;;;;;6222418;28;20476;-69
2022/09/22 00:36:50;;;;;;;1.93;1.83;;;9.00;96.70;;;;;;6221506;28;20474;-70
2022/09/22 00:39:53;;;;;;;1.80;1.60;;;9.00;96.80;;;;;;6224005;28;20499;-69
2022/09/22 00:43:12;;;;;;;1.60;1.50;;;9.00;97.00;;;;;;6225493;28;20476;-69
2022/09/22 00:46:18;;;;;;;2.97;1.70;;;8.90;97.20;;;;;;6226544;28;20472;-69
2022/09/22 00:49:34;;;;;;;1.10;1.10;;;8.90;97.20;;;;;;6227314;28;20583;-69
2022/09/22 00:52:42;;;;;;;2.07;1.93;;;8.90;97.20;;;;;;6221343;28;20472;-69
2022/09/22 00:55:49;;;;;;;1.40;1.30;;;8.90;97.60;;;;;;6225697;28;20483;-69
2022/09/22 00:58:57;;;;;;;1.60;1.50;;;8.80;97.30;;;;;;6227910;28;20483;-68
2022/09/22 01:02:01;;;;;;;1.87;1.57;;;8.70;97.50;;;;;;6232234;28;20541;-69
2022/09/22 01:05:07;;;;;;;2.00;1.90;;;8.70;97.60;;;;;;6225615;28;20569;-68
2022/09/22 01:08:12;;;;;;;1.63;1.53;;;8.60;97.60;;;;;;6228647;28;20487;-68
2022/09/22 01:11:19;;;;;;;1.97;1.40;;;8.60;97.60;;;;;;6227858;28;20472;-68
2022/09/22 01:14:33;;;;;;;1.73;1.60;;;8.60;97.80;;;;;;6223566;28;20472;-69
2022/09/22 01:17:44;;;;;;;2.20;2.00;;;8.60;97.90;;;;;;6219949;28;20534;-68
2022/09/22 01:21:17;;;;;;;2.00;1.73;;;8.60;97.90;;;;;;6224373;28;20472;-69
2022/09/22 01:24:53;;;;;;;2.93;1.80;;;8.50;98.20;;;;;;6200942;28;20492;-68
2022/09/22 01:28:21;;;;;;;4.33;2.30;;;8.50;98.10;;;;;;6201398;28;20465;-68
2022/09/22 01:31:30;;;;;;;2.10;1.70;;;8.50;98.30;;;;;;6201385;28;20512;-68
2022/09/22 01:34:38;;;;;;;1.87;1.77;;;8.40;98.60;;;;;;6200964;28;20512;-68
2022/09/22 01:37:48;;;;;;;2.50;1.63;;;8.40;98.80;;;;;;6200616;28;20469;-68
2022/09/22 01:40:55;;;;;;;1.40;1.30;;;8.40;98.90;;;;;;6201338;28;20492;-68
2022/09/22 01:44:03;;;;;;;2.03;1.83;;;8.40;98.90;;;;;;6200339;28;20477;-68
2022/09/22 01:47:12;;;;;;;3.60;1.70;;;8.40;98.80;;;;;;6200831;28;20534;-68
2022/09/22 01:50:23;;;;;;;2.07;1.50;;;8.40;98.90;;;;;;6200461;28;20976;-68
2022/09/22 01:53:32;;;;;;;1.63;1.53;;;8.40;98.90;;;;;;6200451;28;20476;-68
2022/09/22 01:56:37;;;;;;;4.27;2.03;;;8.30;99.00;;;;;;6196652;28;21008;-69
2022/09/22 01:59:43;;;;;;;2.43;2.03;;;8.30;99.10;;;;;;6217440;28;20485;-70
2022/09/22 02:02:53;;;;;;;3.70;1.60;;;8.20;99.20;;;;;;6224680;28;20480;-71
2022/09/22 02:06:01;;;;;;;2.23;1.77;;;8.20;99.40;;;;;;6224759;28;20487;-70
2022/09/22 02:09:06;;;;;;;1.70;1.60;;;8.20;99.40;;;;;;6225333;28;20476;-71
2022/09/22 02:12:09;;;;;;;3.43;1.93;;;8.20;99.40;;;;;;6225340;28;20472;-71
2022/09/22 02:18:36;;;;;;;2.90;2.70;;;8.20;99.40;;;;;;6223935;28;20460;-71
2022/09/22 02:21:40;;;;;;;2.40;2.20;;;8.20;99.50;;;;;;6224666;28;20483;-71
2022/09/22 02:24:46;;;;;;;1.90;1.80;;;8.10;99.50;;;;;;6224738;28;20472;-70
2022/09/22 02:27:53;;;;;;;2.00;1.73;;;8.10;99.50;;;;;;6224429;28;20483;-68
2022/09/22 02:30:58;;;;;;;1.80;1.60;;;8.10;99.60;;;;;;6224282;28;20508;-69
2022/09/22 02:34:23;;;;;;;2.23;1.93;;;8.00;99.90;;;;;;6224663;28;21027;-69
2022/09/22 02:37:35;;;;;;;2.67;2.47;;;8.00;99.90;;;;;;6224695;28;20559;-69
2022/09/22 02:40:45;;;;;;;2.70;2.50;;;7.90;99.90;;;;;;6224263;28;20881;-70
2022/09/22 02:43:52;;;;;;;2.43;2.23;;;8.00;99.90;;;;;;6224691;28;20479;-70
2022/09/22 02:47:01;;;;;;;3.57;2.23;;;7.90;99.90;;;;;;6224303;28;20472;-70
2022/09/22 02:50:09;;;;;;;1.90;1.80;;;7.90;99.90;;;;;;6228471;28;20472;-70
2022/09/22 02:53:14;;;;;;;2.03;1.83;;;7.90;99.90;;;;;;6228707;28;20806;-70
2022/09/22 02:56:17;;;;;;;2.13;1.93;;;7.90;99.90;;;;;;6228952;28;20832;-70
2022/09/22 02:59:20;;;;;;;2.70;2.50;;;7.80;99.90;;;;;;6229184;28;20468;-71
2022/09/22 03:02:23;;;;;;;2.27;2.07;;;7.80;99.90;;;;;;6228972;28;20529;-71
2022/09/22 03:05:28;;;;;;;1.77;1.50;;;7.80;99.90;;;;;;6228804;28;20480;-71
2022/09/22 03:08:31;;;;;;;2.13;2.00;;;7.80;99.90;;;;;;6228821;28;20480;-71
2022/09/22 03:11:34;;;;;;;5.47;2.00;;;7.80;99.90;;;;;;6228733;28;20538;-71
2022/09/22 03:14:37;;;;;;;2.60;2.07;;;7.80;99.90;;;;;;6228701;28;20480;-71
2022/09/22 03:17:41;;;;;;;2.30;2.10;;;7.80;99.90;;;;;;6228552;28;20475;-71
2022/09/22 03:20:46;;;;;;;2.43;2.13;;;7.80;99.90;;;;;;6228055;28;21026;-71
2022/09/22 03:23:49;;;;;;;1.93;1.83;;;7.80;99.90;;;;;;6228223;28;20476;-71
2022/09/22 03:26:52;;;;;;;1.97;1.87;;;7.80;99.90;;;;;;6227834;28;20487;-69
2022/09/22 03:29:55;;;;;;;2.00;1.87;;;7.70;99.90;;;;;;6228388;28;20553;-69
2022/09/22 03:32:58;;;;;;;2.43;2.23;;;7.70;99.90;;;;;;6227913;28;21010;-69
2022/09/22 03:36:03;;;;;;;1.90;1.80;;;7.60;99.90;;;;;;6228050;28;20792;-69
2022/09/22 03:39:06;;;;;;;5.50;2.00;;;7.60;99.90;;;;;;6229892;28;20476;-69
2022/09/22 03:42:10;;;;;;;2.60;2.10;;;7.50;99.90;;;;;;6229700;28;20467;-69
2022/09/22 03:45:13;;;;;;;3.20;2.60;;;7.50;99.90;;;;;;6228184;28;20511;-69
2022/09/22 03:48:17;;;;;;;3.03;2.40;;;7.60;99.90;;;;;;6227885;28;20923;-70
2022/09/22 03:51:21;;;;;;;2.70;2.50;;;7.60;99.90;;;;;;6227938;28;20483;-69
2022/09/22 03:54:25;;;;;;;2.77;2.40;;;7.50;99.90;;;;;;6227579;28;20460;-70
2022/09/22 03:57:28;;;;;;;5.93;2.57;;;7.50;99.90;;;;;;6228005;28;20471;-70
2022/09/22 04:00:31;;;;;;;2.97;2.30;;;7.50;99.90;;;;;;6227330;28;20498;-69
2022/09/22 04:03:34;;;;;;;6.07;2.50;;;7.50;99.90;;;;;;6227770;28;20562;-69
2022/09/22 04:06:39;;;;;;;2.93;2.73;;;7.50;99.90;;;;;;6227585;28;20498;-69
2022/09/22 04:09:42;;;;;;;2.30;2.07;;;7.50;99.90;;;;;;6227136;28;20468;-69
2022/09/22 04:12:45;;;;;;;3.30;2.63;;;7.50;99.90;;;;;;6226229;28;20546;-69
2022/09/22 04:15:49;;;;;;;2.07;1.97;;;7.50;99.90;;;;;;6227442;28;20476;-70
2022/09/22 04:18:52;;;;;;;4.20;1.70;;;7.60;99.90;;;;;;6227155;28;20952;-70
2022/09/22 04:21:56;;;;;;;2.83;2.63;;;7.60;99.90;;;;;;6226940;28;20483;-70
2022/09/22 04:25:00;;;;;;;2.40;2.20;;;7.60;99.90;;;;;;6226931;28;20507;-70
2022/09/22 04:28:03;;;;;;;2.80;2.60;;;7.60;99.90;;;;;;6226677;28;20468;-70
2022/09/22 04:31:07;;;;;;;2.37;2.07;;;7.60;99.90;;;;;;6226470;28;21006;-69
2022/09/22 04:34:10;;;;;;;2.60;2.40;;;7.70;99.90;;;;;;6227355;28;20797;-69
2022/09/22 04:37:15;;;;;;;4.57;4.17;;;7.70;99.90;;;;;;6226348;28;20482;-69
2022/09/22 04:40:18;;;;;;;2.77;2.40;;;7.70;99.90;;;;;;6226885;28;20595;-69
2022/09/22 04:43:22;;;;;;;2.87;2.63;;;7.70;99.90;;;;;;6226433;28;20495;-70
2022/09/22 04:46:26;;;;;;;3.30;3.00;;;7.70;99.90;;;;;;6226467;28;20484;-70
2022/09/22 04:49:29;;;;;;;6.00;3.30;;;7.70;99.90;;;;;;6227446;28;20475;-70
2022/09/22 04:52:34;;;;;;;6.80;3.40;;;7.80;99.90;;;;;;6226673;28;20955;-70
2022/09/22 04:55:37;;;;;;;6.70;3.20;;;7.80;99.90;;;;;;6226468;28;20472;-69
2022/09/22 04:58:40;;;;;;;4.03;3.40;;;7.90;99.90;;;;;;6226238;28;20487;-70
2022/09/22 05:01:43;;;;;;;3.13;2.90;;;7.80;99.90;;;;;;6226425;28;20484;-69
2022/09/22 05:04:46;;;;;;;3.53;3.23;;;7.80;99.90;;;;;;6226278;28;20525;-69
2022/09/22 05:07:53;;;;;;;4.40;3.50;;;7.80;99.90;;;;;;6217173;28;20480;-69
2022/09/22 05:10:56;;;;;;;4.90;3.47;;;7.80;99.90;;;;;;6225287;28;20475;-69
2022/09/22 05:14:01;;;;;;;4.23;3.60;;;7.90;99.90;;;;;;6226125;28;20490;-69
2022/09/22 05:17:05;;;;;;;4.83;3.60;;;7.90;99.90;;;;;;6226144;28;20972;-69
2022/09/22 05:20:09;;;;;;;3.80;3.50;;;7.90;99.90;;;;;;6225966;28;20513;-69
2022/09/22 05:23:14;;;;;;;5.00;3.57;;;8.00;99.90;;;;;;6225748;28;20511;-69
2022/09/22 05:26:17;;;;;;;3.93;3.20;;;8.10;99.90;;;;;;6226046;28;20483;-70
2022/09/22 05:29:20;;;;;;;3.87;3.47;;;8.10;99.90;;;;;;6225770;28;20480;-70
2022/09/22 05:32:29;;;;;;;3.50;2.90;;;8.30;99.90;;;;;;6225558;28;20481;-69
2022/09/22 05:35:32;;;;;;;4.60;2.80;;;8.40;99.90;;;;;;6225509;28;20468;-68
2022/09/22 05:38:40;;;;;;;3.60;3.30;;;8.60;99.90;;;;;;6225642;28;20498;-69
2022/09/22 05:41:43;;;;;;;4.83;3.10;;;8.70;99.90;;;;;;6225558;28;20483;-69
2022/09/22 05:44:46;;;;;;;5.23;2.60;;;8.80;99.90;;;;;;6225535;28;20842;-69
2022/09/22 05:47:49;;;;;;;4.53;3.50;;;8.90;99.90;;;;;;6225431;28;20484;-69
2022/09/22 05:50:53;;;;;;;10.13;3.80;;;8.90;99.90;;;;;;6224982;28;20484;-68
2022/09/22 05:53:57;;;;;;;2.60;2.40;;;9.00;99.90;;;;;;6225305;28;20491;-67
2022/09/22 05:57:00;;;;;;;5.77;3.33;;;9.10;99.80;;;;;;6225448;28;20858;-67
2022/09/22 06:00:05;;;;;;;4.60;3.10;;;9.10;99.60;;;;;;6225092;28;20982;-68
2022/09/22 06:03:08;;;;;;;6.20;3.10;;;9.20;99.60;;;;;;6225238;28;20468;-68
2022/09/22 06:06:13;;;;;;;8.37;3.60;;;9.30;99.50;;;;;;6225550;28;20563;-70
2022/09/22 06:09:18;;;;;;;3.20;2.80;;;9.30;99.40;;;;;;6220856;28;20463;-69
2022/09/22 06:12:21;;;;;;;4.33;3.90;;;9.50;99.30;;;;;;6224928;28;20476;-69
2022/09/22 06:15:24;;;;;;;6.17;4.20;;;9.60;98.90;;;;;;6225781;28;20452;-69
2022/09/22 06:18:30;;;;;;;4.90;3.70;;;9.80;98.80;;;;;;6224914;28;20483;-69
2022/09/22 06:21:33;;;;;;;4.33;3.53;;;9.90;98.60;;;;;;6225370;28;20480;-69
2022/09/22 06:24:38;;;;;;;4.10;2.70;;;10.10;97.70;;;;;;6230005;28;20478;-69
2022/09/22 06:27:42;;;;;;;5.10;2.83;;;10.20;97.40;;;;;;6230006;28;20472;-68
2022/09/22 06:30:47;;;;;;;3.97;2.93;;;10.20;97.20;;;;;;6229568;28;20855;-68
2022/09/22 06:33:50;;;;;;;10.33;3.27;;;10.20;97.00;;;;;;6230086;28;20956;-69
2022/09/22 06:36:55;;;;;;;3.10;2.80;;;10.40;96.80;;;;;;6229662;28;20464;-69
2022/09/22 06:39:59;;;;;;;4.03;3.13;;;10.70;96.60;;;;;;6229348;28;20793;-69
2022/09/22 06:43:09;;;;;;;4.80;2.37;;;11.00;96.20;;;;;;6229683;28;20476;-69
2022/09/22 06:46:12;;;;;;;3.77;2.90;;;11.50;95.50;;;;;;6229452;28;20483;-70
2022/09/22 06:49:16;;;;;;;2.80;2.43;;;11.90;94.60;;;;;;6229135;28;20482;-70
2022/09/22 06:52:19;;;;;;;3.10;2.50;;;12.10;94.00;;;;;;6228250;28;20475;-70
2022/09/22 06:55:23;;;;;;;4.23;2.33;;;12.30;93.20;;;;;;6229107;28;21017;-70
2022/09/22 06:58:27;;;;;;;4.50;2.50;;;13.20;93.60;;;;;;6228911;28;20512;-71
2022/09/22 07:01:31;;;;;;;3.23;2.03;;;16.00;88.00;;;;;;6229537;28;20579;-71
2022/09/22 07:04:34;;;;;;;2.53;2.07;;;19.10;74.30;;;;;;6229356;28;20472;-71
2022/09/22 07:07:38;;;;;;;2.57;2.03;;;21.60;60.90;;;;;;6225923;28;20542;-71
2022/09/22 07:10:42;;;;;;;2.47;2.27;;;24.10;52.70;;;;;;6226042;28;20233;-71
2022/09/22 07:13:45;;;;;;;2.37;2.10;;;25.90;45.10;;;;;;6227607;28;20229;-70
2022/09/22 07:16:51;;;;;;;3.30;2.70;;;27.40;41.80;;;;;;6215260;28;20282;-71
2022/09/22 07:19:56;;;;;;;3.10;2.43;;;28.70;37.70;;;;;;6227702;28;20229;-71
2022/09/22 07:22:59;;;;;;;3.10;2.50;;;29.70;34.80;;;;;;6228131;28;20587;-70
2022/09/22 07:26:05;;;;;;;3.20;2.27;;;30.70;32.60;;;;;;6229496;28;20570;-71
2022/09/22 07:29:12;;;;;;;3.63;2.37;;;31.60;30.20;;;;;;6228778;28;20232;-71
2022/09/22 07:32:16;;;;;;;4.18;2.38;;;32.30;29.60;;;;;;6228634;28;20307;-71
2022/09/22 07:35:19;;;;;;;2.88;2.58;;;33.10;28.30;;;;;;6227715;28;20598;-71
2022/09/22 07:38:23;;;;;;;3.22;2.45;;;33.70;26.90;;;;;;6228357;28;20553;-70
2022/09/22 07:41:29;;;;;;;5.25;2.80;;;34.20;26.40;;;;;;6228164;28;20236;-71
2022/09/22 07:51:19;;;;;;;3.63;2.67;;;36.10;24.20;;;;;;6227837;28;20237;-71
2022/09/22 07:54:22;;;;;;;3.45;2.00;;;37.10;23.10;;;;;;6203769;28;20284;-71
2022/09/22 07:57:31;;;;;;;7.75;2.45;;;37.70;22.90;;;;;;6203714;28;20531;-71
2022/09/22 08:00:35;;;;;;;3.13;2.53;;;38.00;21.60;;;;;;6203987;28;20225;-71
2022/09/22 08:03:38;;;;;;;2.05;1.85;;;38.30;21.00;;;;;;6204302;28;20243;-71
2022/09/22 08:06:42;;;;;;;1.92;1.73;;;39.00;20.60;;;;;;6203452;28;20236;-72
2022/09/22 08:09:45;;;;;;;4.47;2.45;;;39.80;19.90;;;;;;6203743;28;20221;-72
2022/09/22 08:12:52;;;;;;;3.05;2.30;;;40.50;19.60;;;;;;6203596;28;20244;-71
2022/09/22 08:15:55;;;;;;;2.75;2.45;;;40.80;18.90;;;;;;6203227;28;20233;-71
2022/09/22 08:19:01;;;;;;;2.13;1.75;;;40.70;18.90;;;;;;6202828;28;20244;-71
2022/09/22 08:22:04;;;;;;;2.25;1.65;;;41.00;18.50;;;;;;6202785;28;20244;-72
2022/09/22 08:25:11;;;;;;;2.42;2.22;;;41.00;18.10;;;;;;6203229;28;20233;-72
2022/09/22 08:28:15;;;;;;;2.80;2.15;;;41.40;17.80;;;;;;6203024;28;20670;-73
2022/09/22 08:31:19;;;;;;;3.42;1.80;;;42.10;17.50;;;;;;6203261;28;20712;-74
2022/09/22 08:34:23;;;;;;;2.10;2.00;;;42.60;17.00;;;;;;6225688;28;20593;-68
2022/09/22 08:37:27;;;;;;;2.95;2.67;;;42.70;16.70;;;;;;6228565;28;20227;-69
2022/09/22 08:40:30;;;;;;;3.00;2.30;;;42.90;16.90;;;;;;6227972;28;20226;-70
2022/09/22 08:43:35;;;;;;;2.15;1.95;;;43.40;16.90;;;;;;6228593;28;20227;-70
2022/09/22 08:46:40;;;;;;;3.20;2.13;;;43.90;16.30;;;;;;6228540;28;20232;-67
2022/09/22 08:53:13;;;;;;;2.05;1.85;;;44.90;15.80;;;;;;6226013;28;20304;-67
2022/09/22 08:56:28;;;;;;;2.33;1.65;;;45.60;14.80;;;;;;6226308;28;20670;-70
2022/09/22 08:59:37;;;;;;;3.20;2.10;;;45.20;14.70;;;;;;6226918;28;20228;-69
2022/09/22 09:02:44;;;;;;;4.70;1.80;;;44.60;15.20;;;;;;6224883;28;20435;-70
2022/09/22 09:06:00;;;;;;;4.40;2.10;;;43.80;15.30;;;;;;6225592;28;20235;-69
2022/09/22 09:09:26;;;;;;;2.85;1.80;;;44.80;14.80;;;;;;6225919;28;20243;-68
2022/09/22 09:12:58;;;;;;;2.67;2.08;;;44.90;14.70;;;;;;6225978;28;20233;-67
2022/09/22 09:16:17;;;;;;;3.15;2.03;;;44.70;14.90;;;;;;6224622;28;20376;-69
2022/09/22 09:19:27;;;;;;;3.28;2.97;;;43.90;15.60;;;;;;6225933;28;20277;-67
2022/09/22 09:22:37;;;;;;;3.35;2.30;;;43.60;15.70;;;;;;6221280;28;20236;-67
2022/09/22 09:25:42;;;;;;;2.30;2.10;;;44.20;15.30;;;;;;6224926;28;20232;-67
2022/09/22 09:28:49;;;;;;;2.13;1.90;;;45.50;14.50;;;;;;6223436;28;20666;-67
2022/09/22 09:31:56;;;;;;;2.35;1.88;;;44.40;15.20;;;;;;6224224;28;20242;-66
2022/09/22 09:34:59;;;;;;;2.90;1.90;;;44.40;14.90;;;;;;6223455;28;20295;-66
2022/09/22 09:38:08;;;;;;;2.85;1.95;;;45.70;14.90;;;;;;6223681;28;20296;-66
2022/09/22 09:41:16;;;;;;;2.53;2.33;;;44.30;15.20;;;;;;6224332;28;20235;-66
2022/09/22 09:44:28;;;;;;;1.75;1.65;;;45.80;14.30;;;;;;6225403;28;20232;-66
2022/09/22 09:47:52;;;;;;;2.28;1.58;;;45.80;14.30;;;;;;6224979;28;20296;-67
2022/09/22 09:51:04;;;;;;;2.25;2.05;;;42.60;15.10;;;;;;6225587;28;20237;-67
2022/09/22 09:54:08;;;;;;;1.70;1.60;;;39.80;16.20;;;;;;6223884;28;20551;-67
2022/09/22 09:57:19;;;;;;;2.25;2.03;;;37.40;17.90;;;;;;6224680;28;20220;-68
2022/09/22 10:00:30;;;;;;;1.95;1.70;;;35.00;19.50;;;;;;6228627;28;20259;-68
2022/09/22 10:03:42;;;;;;;1.65;1.50;;;34.70;20.80;;;;;;6228324;28;20548;-67
2022/09/22 10:06:46;;;;;;;2.42;1.60;;;39.30;18.60;;;;;;6224840;28;20551;-67
2022/09/22 10:09:50;;;;;;;1.88;1.75;;;42.90;16.30;;;;;;6224572;28;20269;-66
2022/09/22 10:12:53;;;;;;;1.80;1.70;;;42.70;16.00;;;;;;6224938;28;20243;-66
2022/09/22 10:16:20;;;;;;;1.75;1.50;;;44.00;15.10;;;;;;6225239;28;20314;-66
2022/09/22 10:19:28;;;;;;;3.20;2.30;;;45.20;14.40;;;;;;6223481;28;20298;-67
2022/09/22 10:22:31;;;;;;;2.67;2.03;;;47.00;13.70;;;;;;6225199;28;20391;-67
2022/09/22 10:25:41;;;;;;;1.50;1.40;;;44.90;14.20;;;;;;6225145;28;20325;-67
2022/09/22 10:28:49;;;;;;;2.05;1.85;;;42.90;15.30;;;;;;6220769;28;20287;-67
2022/09/22 10:32:05;;;;;;;1.98;1.50;;;38.40;17.40;;;;;;6224880;28;20251;-66
2022/09/22 10:35:27;;;;;;;1.92;1.77;;;33.80;20.50;;;;;;6224696;28;20281;-66
2022/09/22 10:38:34;;;;;;;2.33;1.60;;;32.70;22.20;;;;;;6224628;28;20243;-66
2022/09/22 10:41:38;;;;;;;1.60;1.50;;;32.60;22.40;;;;;;6224196;28;20239;-66
2022/09/22 10:44:41;;;;;;;1.35;1.25;;;30.90;23.80;;;;;;6224622;28;20232;-66
2022/09/22 10:47:57;;;;;;;2.40;1.50;;;29.60;24.70;;;;;;6224347;28;20236;-66
2022/09/22 10:51:11;;;;;;;3.50;1.83;;;27.70;27.10;;;;;;6224150;28;20320;-66
2022/09/22 10:54:28;;;;;;;1.47;1.37;;;27.10;27.90;;;;;;6224545;28;20616;-66
2022/09/22 10:57:45;;;;;;;1.90;1.70;;;26.60;28.20;;;;;;6224362;28;20236;-67
2022/09/22 11:00:49;;;;;;;2.40;1.73;;;25.40;29.90;;;;;;6224527;28;20295;-66
2022/09/22 11:04:27;;;;;;;1.80;1.70;;;25.00;30.50;;;;;;6224108;28;20700;-68
2022/09/22 11:15:03;;;;;;;1.93;1.67;;;23.60;32.70;;;;;;6228742;28;20240;-67
2022/09/22 11:18:28;;;;;;;1.50;1.10;;;23.60;33.00;;;;;;6228834;28;20303;-66
2022/09/22 11:21:43;;;;;;;2.30;2.00;;;23.00;33.60;;;;;;6229034;28;20248;-67
2022/09/22 11:25:01;;;;;;;1.90;1.70;;;22.80;34.60;;;;;;6231998;28;20225;-68
2022/09/22 11:28:20;;;;;;;1.60;1.47;;;22.60;34.60;;;;;;6230431;28;20226;-69
2022/09/22 11:31:38;;;;;;;1.63;1.53;;;22.50;35.00;;;;;;6219313;28;20256;-68
2022/09/22 11:35:17;;;;;;;2.10;1.17;;;22.40;35.90;;;;;;6228542;28;20371;-70
2022/09/22 11:38:43;;;;;;;1.80;1.40;;;22.00;35.70;;;;;;6229268;28;20244;-68
2022/09/22 11:41:58;;;;;;;1.77;1.67;;;21.80;35.70;;;;;;6237124;28;20237;-67
2022/09/22 11:45:14;;;;;;;1.80;1.70;;;23.10;35.10;;;;;;6242206;28;20225;-69
2022/09/22 11:48:31;;;;;;;2.40;1.33;;;24.10;33.40;;;;;;6230454;28;20229;-68
2022/09/22 11:51:45;;;;;;;1.97;1.70;;;25.00;32.10;;;;;;6230586;28;20221;-67
2022/09/22 11:55:17;;;;;;;2.30;1.63;;;27.70;29.70;;;;;;6229742;28;20251;-67
2022/09/22 11:58:27;;;;;;;5.18;1.90;;;30.50;27.00;;;;;;6227412;28;20229;-67
2022/09/22 12:01:36;;;;;;;1.42;1.33;;;32.60;24.90;;;;;;6227590;28;20543;-68
2022/09/22 12:04:45;;;;;;;1.60;1.50;;;32.50;24.00;;;;;;6231024;28;20228;-68
2022/09/22 12:07:54;;;;;;;1.55;1.27;;;32.20;24.10;;;;;;6228597;28;20247;-68
2022/09/22 12:10:58;;;;;;;2.20;1.45;;;33.10;24.30;;;;;;6227503;28;20252;-69
2022/09/22 12:14:04;;;;;;;2.65;1.58;;;33.10;23.10;;;;;;6227160;28;20783;-67
2022/09/22 12:17:12;;;;;;;1.23;1.13;;;31.50;23.90;;;;;;6227313;28;20303;-67
2022/09/22 12:20:33;;;;;;;1.63;1.53;;;29.90;25.10;;;;;;6226697;28;20630;-67
2022/09/22 12:23:40;;;;;;;2.20;1.33;;;27.70;26.30;;;;;;6227093;28;20307;-67
2022/09/22 12:26:46;;;;;;;1.93;1.40;;;26.30;28.20;;;;;;6227007;28;20237;-67
2022/09/22 12:29:59;;;;;;;2.53;1.40;;;25.10;29.70;;;;;;6226915;28;20668;-67
2022/09/22 12:33:03;;;;;;;1.77;1.67;;;24.40;31.00;;;;;;6226730;28;20236;-68
2022/09/22 12:36:07;;;;;;;1.83;1.70;;;23.60;31.40;;;;;;6221845;28;20564;-69
2022/09/22 12:39:16;;;;;;;1.73;1.33;;;23.30;32.70;;;;;;6226411;28;20236;-68
2022/09/22 12:42:22;;;;;;;1.80;1.70;;;24.00;32.00;;;;;;6227522;28;20228;-68
2022/09/22 12:45:32;;;;;;;4.43;1.63;;;24.60;31.40;;;;;;6226528;28;20263;-67
2022/09/22 12:48:37;;;;;;;2.10;1.70;;;24.70;30.80;;;;;;6224846;28;20232;-67
2022/09/22 12:51:40;;;;;;;2.07;1.77;;;24.60;31.20;;;;;;6223708;28;20240;-67
2022/09/22 12:54:45;;;;;;;3.30;1.67;;;24.30;31.20;;;;;;6224269;28;20229;-67
2022/09/22 12:57:50;;;;;;;2.87;1.80;;;25.40;30.60;;;;;;6224555;28;20898;-67
2022/09/22 13:00:56;;;;;;;1.47;1.37;;;26.80;28.80;;;;;;6225694;28;20236;-67
2022/09/22 13:04:17;;;;;;;2.13;1.30;;;28.60;27.70;;;;;;6226430;28;20673;-67
2022/09/22 13:07:35;;;;;;;1.70;1.53;;;28.70;26.40;;;;;;6226339;28;20232;-67
2022/09/22 13:11:00;;;;;;;1.80;1.47;;;27.80;27.10;;;;;;6225716;28;20240;-67
2022/09/22 13:14:23;;;;;;;2.63;1.33;;;28.70;26.80;;;;;;6226042;28;20244;-67
2022/09/22 13:17:43;;;;;;;2.95;1.20;;;29.30;25.90;;;;;;6225854;28;20228;-67
2022/09/22 13:20:47;;;;;;;2.67;1.50;;;29.90;25.40;;;;;;6224172;28;20286;-67
2022/09/22 13:23:58;;;;;;;3.03;1.70;;;29.20;25.50;;;;;;6225826;28;20587;-67
2022/09/22 13:27:05;;;;;;;1.70;1.60;;;27.70;26.30;;;;;;6226137;28;20758;-68
2022/09/22 13:30:14;;;;;;;1.67;1.57;;;26.50;27.80;;;;;;6225296;28;20228;-67
2022/09/22 13:33:21;;;;;;;1.43;1.17;;;25.40;29.10;;;;;;6225472;28;20251;-67
2022/09/22 13:36:24;;;;;;;1.77;1.30;;;24.70;29.80;;;;;;6217284;28;20263;-66
2022/09/22 13:39:30;;;;;;;1.50;1.33;;;24.00;32.00;;;;;;6226530;28;20212;-67
2022/09/22 13:42:34;;;;;;;1.90;1.80;;;23.40;35.50;;;;;;6225975;28;20237;-66
2022/09/22 13:45:39;;;;;;;1.30;1.20;;;22.60;37.40;;;;;;6225358;28;20565;-66
2022/09/22 13:48:43;;;;;;;2.67;1.33;;;21.70;38.70;;;;;;6225074;28;20226;-66
2022/09/22 13:51:50;;;;;;;1.63;1.20;;;20.80;40.20;;;;;;6225147;28;20233;-66
2022/09/22 13:54:58;;;;;;;1.93;1.50;;;20.10;42.50;;;;;;6225487;28;20229;-67
2022/09/22 13:58:02;;;;;;;2.30;2.10;;;19.60;43.70;;;;;;6224964;28;20721;-67
2022/09/22 14:01:14;;;;;;;1.63;1.53;;;19.30;44.40;;;;;;6225373;28;20236;-66
2022/09/22 14:04:24;;;;;;;1.70;1.60;;;19.00;47.20;;;;;;6225065;28;20233;-67
2022/09/22 14:07:30;;;;;;;3.20;1.43;;;18.80;47.80;;;;;;6225592;28;20240;-67
2022/09/22 14:10:34;;;;;;;2.63;1.83;;;18.70;49.00;;;;;;6224884;28;20229;-67
2022/09/22 14:13:42;;;;;;;1.40;1.30;;;18.70;49.90;;;;;;6224876;28;20228;-67
2022/09/22 14:16:49;;;;;;;2.43;1.70;;;18.50;50.10;;;;;;6224954;28;20248;-67
2022/09/22 14:19:57;;;;;;;1.43;1.33;;;18.50;50.90;;;;;;6224728;28;20704;-67
2022/09/22 14:23:00;;;;;;;2.20;1.60;;;18.50;51.50;;;;;;6224778;28;20234;-67
2022/09/22 14:26:32;;;;;;;4.33;2.10;;;18.40;51.90;;;;;;6224772;28;20240;-66
2022/09/22 14:29:37;;;;;;;1.67;1.43;;;18.20;53.10;;;;;;6224921;28;20225;-67
2022/09/22 14:32:47;;;;;;;1.60;1.50;;;18.10;54.10;;;;;;6225006;28;20229;-67
2022/09/22 14:36:00;;;;;;;2.03;1.93;;;18.10;54.80;;;;;;6224618;28;20237;-67
2022/09/22 14:39:04;;;;;;;2.03;1.70;;;18.10;53.80;;;;;;6224791;28;20318;-67
2022/09/22 14:42:20;;;;;;;3.07;1.63;;;18.30;52.50;;;;;;6219550;28;20236;-66
2022/09/22 14:45:25;;;;;;;1.90;1.63;;;18.30;52.10;;;;;;6229466;28;20220;-66
2022/09/22 14:48:31;;;;;;;3.80;2.17;;;18.40;52.00;;;;;;6229369;28;20205;-66
2022/09/22 14:51:35;;;;;;;2.00;1.70;;;18.50;52.70;;;;;;6229670;28;20245;-66
2022/09/22 14:54:39;;;;;;;2.17;1.97;;;18.60;51.20;;;;;;6230183;28;20239;-68
2022/09/22 14:57:46;;;;;;;2.80;1.50;;;18.70;50.80;;;;;;6228301;28;20236;-67
2022/09/22 15:04:21;;;;;;;2.33;1.97;;;19.00;50.60;;;;;;6228422;28;20309;-66
2022/09/22 15:07:29;;;;;;;2.37;1.83;;;19.00;50.20;;;;;;6226603;28;20692;-66
2022/09/22 15:10:34;;;;;;;1.97;1.80;;;18.60;49.80;;;;;;6229128;28;20233;-67
2022/09/22 15:13:40;;;;;;;3.20;2.03;;;18.40;49.40;;;;;;6230631;28;20221;-67
2022/09/22 15:16:43;;;;;;;2.63;2.37;;;18.10;50.40;;;;;;6229394;28;20228;-66
2022/09/22 15:19:50;;;;;;;1.63;1.53;;;18.10;51.30;;;;;;6228371;28;20235;-66
2022/09/22 15:22:55;;;;;;;3.00;1.90;;;17.90;52.10;;;;;;6228311;28;20240;-66
2022/09/22 15:26:03;;;;;;;1.90;1.80;;;17.80;51.90;;;;;;6228574;28;20240;-66
2022/09/22 15:29:06;;;;;;;3.60;1.30;;;17.80;52.00;;;;;;6229115;28;20252;-66
2022/09/22 15:32:10;;;;;;;1.77;1.67;;;17.80;52.10;;;;;;6228956;28;20677;-67
2022/09/22 15:35:14;;;;;;;1.87;1.70;;;17.60;51.90;;;;;;6243001;28;20255;-66
2022/09/22 15:38:22;;;;;;;3.90;1.50;;;17.60;52.20;;;;;;6245882;28;20244;-66
2022/09/22 15:41:26;;;;;;;1.27;1.17;;;17.40;53.00;;;;;;6245367;28;20225;-66
2022/09/22 15:44:31;;;;;;;1.57;1.33;;;17.20;53.60;;;;;;6236942;28;20510;-66
2022/09/22 15:47:34;;;;;;;2.90;2.00;;;17.00;53.80;;;;;;6228624;28;20476;-66
2022/09/22 15:50:38;;;;;;;1.97;1.70;;;16.70;54.70;;;;;;6228222;28;20483;-65
2022/09/22 15:53:44;;;;;;;4.33;2.43;;;16.60;55.40;;;;;;6228847;28;20955;-67
2022/09/22 15:56:49;;;;;;;2.60;2.40;;;16.50;55.80;;;;;;6227392;28;20473;-66
2022/09/22 15:59:52;;;;;;;1.80;1.60;;;16.30;56.70;;;;;;6227762;28;20480;-65
2022/09/22 16:02:55;;;;;;;1.80;1.70;;;16.20;57.80;;;;;;6227278;28;20472;-65
2022/09/22 16:06:03;;;;;;;2.10;1.90;;;16.10;58.20;;;;;;6227460;28;20482;-65
2022/09/22 16:09:07;;;;;;;1.73;1.63;;;16.10;58.40;;;;;;6227447;28;20479;-65
2022/09/22 16:12:14;;;;;;;3.10;2.30;;;16.10;58.60;;;;;;6227087;28;20495;-66
2022/09/22 16:15:17;;;;;;;2.83;2.00;;;16.20;58.50;;;;;;6227888;28;20463;-66
2022/09/22 16:18:21;;;;;;;2.83;2.50;;;16.20;58.90;;;;;;6230552;28;20696;-66
2022/09/22 16:21:28;;;;;;;3.30;3.00;;;16.10;59.40;;;;;;6230662;28;20464;-66
2022/09/22 16:24:33;;;;;;;3.53;2.10;;;16.00;59.90;;;;;;6229352;28;20448;-66
2022/09/22 16:27:37;;;;;;;3.17;2.80;;;16.10;60.70;;;;;;6227815;28;20471;-67
2022/09/22 16:30:40;;;;;;;3.50;3.20;;;16.00;61.20;;;;;;6227406;28;20798;-66
2022/09/22 16:33:43;;;;;;;6.33;4.20;;;15.90;61.70;;;;;;6226905;28;20464;-67
2022/09/22 16:36:46;;;;;;;10.70;5.73;;;15.70;62.50;;;;;;6226881;28;20472;-68
2022/09/22 16:39:51;;;;;;;5.60;4.73;;;15.70;63.20;;;;;;6225486;28;20476;-67
2022/09/22 16:42:54;;;;;;;3.23;2.93;;;15.70;63.50;;;;;;6221729;28;20473;-67
2022/09/22 16:49:19;;;;;;;11.23;9.27;;;15.80;64.20;;;;;;6207525;28;20522;-66